sensor_id;sensor_type;location;lat;lon;timestamp;pressure;altitude;pressure_sealevel;temperature
8227;BMP180;4154;48.810;9.012;2023-03-07T00:01:30;95853.00;;;2.80
8227;BMP180;4154;48.810;9.012;2023-03-07T00:03:57;95860.00;;;2.90
8227;BMP180;4154;48.810;9.012;2023-03-07T00:06:24;95865.00;;;2.80
8227;BMP180;4154;48.810;9.012;2023-03-07T00:08:51;95867.00;;;2.90
8227;BMP180;4154;48.810;9.012;2023-03-07T00:11:18;95868.00;;;2.90
8227;BMP180;4154;48.810;9.012;2023-03-07T00:13:44;95864.00;;;2.80
8227;BMP180;4154;48.810;9.012;2023-03-07T00:16:15;95868.00;;;2.70
8227;BMP180;4154;48.810;9.012;2023-03-07T00:18:42;95865.00;;;2.70
8227;BMP180;4154;48.810;9.012;2023-03-07T00:21:12;95865.00;;;2.80
8227;BMP180;4154;48.810;9.012;2023-03-07T00:23:41;95865.00;;;2.80
8227;BMP180;4154;48.810;9.012;2023-03-07T00:26:13;95850.00;;;2.80
8227;BMP180;4154;48.810;9.012;2023-03-07T00:28:39;95855.00;;;2.80
8227;BMP180;4154;48.810;9.012;2023-03-07T00:31:07;95858.00;;;2.90
8227;BMP180;4154;48.810;9.012;2023-03-07T00:33:34;95856.00;;;2.80
8227;BMP180;4154;48.810;9.012;2023-03-07T00:38:31;95841.00;;;2.80
8227;BMP180;4154;48.810;9.012;2023-03-07T00:43:23;95834.00;;;2.80
8227;BMP180;4154;48.810;9.012;2023-03-07T00:45:49;95831.00;;;2.80
8227;BMP180;4154;48.810;9.012;2023-03-07T00:48:15;95822.00;;;2.90
8227;BMP180;4154;48.810;9.012;2023-03-07T00:50:43;95815.00;;;2.70
8227;BMP180;4154;48.810;9.012;2023-03-07T00:53:08;95827.00;;;2.60
8227;BMP180;4154;48.810;9.012;2023-03-07T00:55:34;95812.00;;;2.70
8227;BMP180;4154;48.810;9.012;2023-03-07T00:58:00;95810.00;;;2.70
8227;BMP180;4154;48.810;9.012;2023-03-07T01:00:25;95815.00;;;2.70
8227;BMP180;4154;48.810;9.012;2023-03-07T01:02:51;95813.00;;;2.70
8227;BMP180;4154;48.810;9.012;2023-03-07T01:05:17;95825.00;;;2.70
8227;BMP180;4154;48.810;9.012;2023-03-07T01:07:44;95813.00;;;2.60
8227;BMP180;4154;48.810;9.012;2023-03-07T01:10:09;95821.00;;;2.70
8227;BMP180;4154;48.810;9.012;2023-03-07T01:12:35;95820.00;;;2.70
8227;BMP180;4154;48.810;9.012;2023-03-07T01:15:01;95824.00;;;2.60
8227;BMP180;4154;48.810;9.012;2023-03-07T01:17:29;95827.00;;;2.60
8227;BMP180;4154;48.810;9.012;2023-03-07T01:19:55;95811.00;;;2.70
8227;BMP180;4154;48.810;9.012;2023-03-07T01:22:21;95804.00;;;2.70
8227;BMP180;4154;48.810;9.012;2023-03-07T01:24:47;95813.00;;;2.80
8227;BMP180;4154;48.810;9.012;2023-03-07T01:27:12;95813.00;;;2.80
8227;BMP180;4154;48.810;9.012;2023-03-07T01:29:38;95809.00;;;2.80
8227;BMP180;4154;48.810;9.012;2023-03-07T01:32:04;95812.00;;;2.70
8227;BMP180;4154;48.810;9.012;2023-03-07T01:34:29;95811.00;;;2.70
8227;BMP180;4154;48.810;9.012;2023-03-07T01:36:55;95807.00;;;2.80
8227;BMP180;4154;48.810;9.012;2023-03-07T01:39:21;95785.00;;;2.80
8227;BMP180;4154;48.810;9.012;2023-03-07T01:41:47;95791.00;;;2.70
8227;BMP180;4154;48.810;9.012;2023-03-07T01:44:20;95791.00;;;2.80
8227;BMP180;4154;48.810;9.012;2023-03-07T01:46:54;95789.00;;;2.70
8227;BMP180;4154;48.810;9.012;2023-03-07T01:49:32;95793.00;;;2.80
8227;BMP180;4154;48.810;9.012;2023-03-07T01:52:10;95780.00;;;2.80
8227;BMP180;4154;48.810;9.012;2023-03-07T01:54:42;95786.00;;;2.70
8227;BMP180;4154;48.810;9.012;2023-03-07T01:57:15;95794.00;;;2.80
8227;BMP180;4154;48.810;9.012;2023-03-07T01:59:46;95789.00;;;2.80
8227;BMP180;4154;48.810;9.012;2023-03-07T02:02:17;95770.00;;;2.80
8227;BMP180;4154;48.810;9.012;2023-03-07T02:07:32;95777.00;;;2.80
8227;BMP180;4154;48.810;9.012;2023-03-07T02:10:00;95769.00;;;2.70
8227;BMP180;4154;48.810;9.012;2023-03-07T02:12:26;95775.00;;;2.80
8227;BMP180;4154;48.810;9.012;2023-03-07T02:14:52;95768.00;;;2.80
8227;BMP180;4154;48.810;9.012;2023-03-07T02:17:18;95777.00;;;2.90
8227;BMP180;4154;48.810;9.012;2023-03-07T02:20:12;95768.00;;;2.80
8227;BMP180;4154;48.810;9.012;2023-03-07T02:22:43;95775.00;;;2.90
8227;BMP180;4154;48.810;9.012;2023-03-07T02:27:52;95768.00;;;2.90
8227;BMP180;4154;48.810;9.012;2023-03-07T02:30:19;95759.00;;;2.90
8227;BMP180;4154;48.810;9.012;2023-03-07T02:32:45;95758.00;;;2.90
8227;BMP180;4154;48.810;9.012;2023-03-07T02:35:22;95743.00;;;3.00
8227;BMP180;4154;48.810;9.012;2023-03-07T02:37:53;95751.00;;;3.00
8227;BMP180;4154;48.810;9.012;2023-03-07T02:40:23;95746.00;;;3.00
8227;BMP180;4154;48.810;9.012;2023-03-07T02:42:51;95745.00;;;2.90
8227;BMP180;4154;48.810;9.012;2023-03-07T02:45:19;95732.00;;;2.90
8227;BMP180;4154;48.810;9.012;2023-03-07T02:47:45;95737.00;;;2.90
8227;BMP180;4154;48.810;9.012;2023-03-07T02:50:13;95746.00;;;2.90
8227;BMP180;4154;48.810;9.012;2023-03-07T02:52:39;95725.00;;;3.00
8227;BMP180;4154;48.810;9.012;2023-03-07T02:55:07;95735.00;;;2.90
8227;BMP180;4154;48.810;9.012;2023-03-07T02:57:33;95735.00;;;2.90
8227;BMP180;4154;48.810;9.012;2023-03-07T02:59:59;95736.00;;;2.90
8227;BMP180;4154;48.810;9.012;2023-03-07T03:02:25;95728.00;;;2.90
8227;BMP180;4154;48.810;9.012;2023-03-07T03:04:51;95728.00;;;2.90
8227;BMP180;4154;48.810;9.012;2023-03-07T03:07:17;95723.00;;;2.90
8227;BMP180;4154;48.810;9.012;2023-03-07T03:09:43;95726.00;;;2.90
8227;BMP180;4154;48.810;9.012;2023-03-07T03:12:08;95736.00;;;2.90
8227;BMP180;4154;48.810;9.012;2023-03-07T03:14:34;95731.00;;;2.90
8227;BMP180;4154;48.810;9.012;2023-03-07T03:16:59;95735.00;;;2.90
8227;BMP180;4154;48.810;9.012;2023-03-07T03:19:27;95739.00;;;2.90
8227;BMP180;4154;48.810;9.012;2023-03-07T03:21:53;95731.00;;;3.00
8227;BMP180;4154;48.810;9.012;2023-03-07T03:24:18;95737.00;;;3.00
8227;BMP180;4154;48.810;9.012;2023-03-07T03:26:44;95734.00;;;3.00
8227;BMP180;4154;48.810;9.012;2023-03-07T03:29:10;95728.00;;;3.00
8227;BMP180;4154;48.810;9.012;2023-03-07T03:31:35;95734.00;;;3.10
8227;BMP180;4154;48.810;9.012;2023-03-07T03:34:01;95738.00;;;3.00
8227;BMP180;4154;48.810;9.012;2023-03-07T03:36:27;95723.00;;;3.10
8227;BMP180;4154;48.810;9.012;2023-03-07T03:38:55;95726.00;;;3.10
8227;BMP180;4154;48.810;9.012;2023-03-07T03:41:22;95727.00;;;3.10
8227;BMP180;4154;48.810;9.012;2023-03-07T03:43:48;95731.00;;;3.10
8227;BMP180;4154;48.810;9.012;2023-03-07T03:46:13;95735.00;;;3.20
8227;BMP180;4154;48.810;9.012;2023-03-07T03:48:39;95734.00;;;3.20
8227;BMP180;4154;48.810;9.012;2023-03-07T03:51:10;95725.00;;;3.20
8227;BMP180;4154;48.810;9.012;2023-03-07T03:53:38;95726.00;;;3.20
8227;BMP180;4154;48.810;9.012;2023-03-07T03:56:12;95722.00;;;3.20
8227;BMP180;4154;48.810;9.012;2023-03-07T03:58:39;95723.00;;;3.20
8227;BMP180;4154;48.810;9.012;2023-03-07T04:01:08;95720.00;;;3.20
8227;BMP180;4154;48.810;9.012;2023-03-07T04:03:39;95716.00;;;3.10
8227;BMP180;4154;48.810;9.012;2023-03-07T04:06:11;95717.00;;;3.10
8227;BMP180;4154;48.810;9.012;2023-03-07T04:08:39;95726.00;;;3.10
8227;BMP180;4154;48.810;9.012;2023-03-07T04:11:05;95718.00;;;3.10
8227;BMP180;4154;48.810;9.012;2023-03-07T04:13:33;95707.00;;;3.10
8227;BMP180;4154;48.810;9.012;2023-03-07T04:15:59;95715.00;;;3.10
8227;BMP180;4154;48.810;9.012;2023-03-07T04:18:25;95714.00;;;3.10
8227;BMP180;4154;48.810;9.012;2023-03-07T04:20:52;95706.00;;;3.10
8227;BMP180;4154;48.810;9.012;2023-03-07T04:23:20;95708.00;;;3.20
8227;BMP180;4154;48.810;9.012;2023-03-07T04:25:55;95714.00;;;3.20
8227;BMP180;4154;48.810;9.012;2023-03-07T04:28:23;95702.00;;;3.20
8227;BMP180;4154;48.810;9.012;2023-03-07T04:30:50;95699.00;;;3.10
8227;BMP180;4154;48.810;9.012;2023-03-07T04:33:21;95704.00;;;3.10
8227;BMP180;4154;48.810;9.012;2023-03-07T04:35:47;95691.00;;;3.20
8227;BMP180;4154;48.810;9.012;2023-03-07T04:38:14;95683.00;;;3.10
8227;BMP180;4154;48.810;9.012;2023-03-07T04:40:40;95699.00;;;3.20
8227;BMP180;4154;48.810;9.012;2023-03-07T04:43:06;95684.00;;;3.20
8227;BMP180;4154;48.810;9.012;2023-03-07T04:45:35;95694.00;;;3.20
8227;BMP180;4154;48.810;9.012;2023-03-07T04:48:02;95684.00;;;3.10
8227;BMP180;4154;48.810;9.012;2023-03-07T04:50:28;95685.00;;;3.30
8227;BMP180;4154;48.810;9.012;2023-03-07T04:52:54;95680.00;;;3.30
8227;BMP180;4154;48.810;9.012;2023-03-07T04:55:19;95686.00;;;3.30
8227;BMP180;4154;48.810;9.012;2023-03-07T04:57:45;95687.00;;;3.20
8227;BMP180;4154;48.810;9.012;2023-03-07T05:00:12;95689.00;;;3.20
8227;BMP180;4154;48.810;9.012;2023-03-07T05:02:38;95688.00;;;3.30
8227;BMP180;4154;48.810;9.012;2023-03-07T05:05:05;95685.00;;;3.30
8227;BMP180;4154;48.810;9.012;2023-03-07T05:07:31;95677.00;;;3.40
8227;BMP180;4154;48.810;9.012;2023-03-07T05:09:57;95667.00;;;3.40
8227;BMP180;4154;48.810;9.012;2023-03-07T05:12:24;95671.00;;;3.40
8227;BMP180;4154;48.810;9.012;2023-03-07T05:14:49;95674.00;;;3.40
8227;BMP180;4154;48.810;9.012;2023-03-07T05:17:15;95674.00;;;3.40
8227;BMP180;4154;48.810;9.012;2023-03-07T05:19:41;95670.00;;;3.30
8227;BMP180;4154;48.810;9.012;2023-03-07T05:22:07;95668.00;;;3.30
8227;BMP180;4154;48.810;9.012;2023-03-07T05:24:34;95655.00;;;3.30
8227;BMP180;4154;48.810;9.012;2023-03-07T05:27:00;95657.00;;;3.30
8227;BMP180;4154;48.810;9.012;2023-03-07T05:29:26;95654.00;;;3.40
8227;BMP180;4154;48.810;9.012;2023-03-07T05:31:52;95663.00;;;3.30
8227;BMP180;4154;48.810;9.012;2023-03-07T05:34:17;95658.00;;;3.20
8227;BMP180;4154;48.810;9.012;2023-03-07T05:36:43;95669.00;;;3.30
8227;BMP180;4154;48.810;9.012;2023-03-07T05:39:09;95675.00;;;3.20
8227;BMP180;4154;48.810;9.012;2023-03-07T05:41:34;95659.00;;;3.30
8227;BMP180;4154;48.810;9.012;2023-03-07T05:44:00;95668.00;;;3.20
8227;BMP180;4154;48.810;9.012;2023-03-07T05:46:26;95658.00;;;3.30
8227;BMP180;4154;48.810;9.012;2023-03-07T05:48:52;95661.00;;;3.10
8227;BMP180;4154;48.810;9.012;2023-03-07T05:51:18;95653.00;;;3.20
8227;BMP180;4154;48.810;9.012;2023-03-07T05:53:43;95651.00;;;3.10
8227;BMP180;4154;48.810;9.012;2023-03-07T05:56:11;95652.00;;;3.10
8227;BMP180;4154;48.810;9.012;2023-03-07T05:58:37;95658.00;;;3.10
8227;BMP180;4154;48.810;9.012;2023-03-07T06:01:03;95651.00;;;3.10
8227;BMP180;4154;48.810;9.012;2023-03-07T06:03:30;95651.00;;;3.00
8227;BMP180;4154;48.810;9.012;2023-03-07T06:05:56;95647.00;;;3.00
8227;BMP180;4154;48.810;9.012;2023-03-07T06:08:22;95644.00;;;3.00
8227;BMP180;4154;48.810;9.012;2023-03-07T06:10:52;95636.00;;;3.00
8227;BMP180;4154;48.810;9.012;2023-03-07T06:13:23;95635.00;;;3.10
8227;BMP180;4154;48.810;9.012;2023-03-07T06:15:53;95631.00;;;3.00
8227;BMP180;4154;48.810;9.012;2023-03-07T06:18:21;95640.00;;;3.00
8227;BMP180;4154;48.810;9.012;2023-03-07T06:20:57;95639.00;;;3.00
8227;BMP180;4154;48.810;9.012;2023-03-07T06:23:25;95642.00;;;3.10
8227;BMP180;4154;48.810;9.012;2023-03-07T06:25:51;95641.00;;;3.00
8227;BMP180;4154;48.810;9.012;2023-03-07T06:28:17;95635.00;;;3.10
8227;BMP180;4154;48.810;9.012;2023-03-07T06:30:43;95645.00;;;3.10
8227;BMP180;4154;48.810;9.012;2023-03-07T06:33:09;95644.00;;;3.00
8227;BMP180;4154;48.810;9.012;2023-03-07T06:35:38;95646.00;;;3.10
8227;BMP180;4154;48.810;9.012;2023-03-07T06:38:05;95645.00;;;3.10
8227;BMP180;4154;48.810;9.012;2023-03-07T06:40:31;95647.00;;;3.10
8227;BMP180;4154;48.810;9.012;2023-03-07T06:42:57;95652.00;;;3.10
8227;BMP180;4154;48.810;9.012;2023-03-07T06:45:22;95643.00;;;3.20
8227;BMP180;4154;48.810;9.012;2023-03-07T06:47:48;95651.00;;;3.10
8227;BMP180;4154;48.810;9.012;2023-03-07T06:50:13;95655.00;;;3.10
8227;BMP180;4154;48.810;9.012;2023-03-07T06:52:39;95659.00;;;3.20
8227;BMP180;4154;48.810;9.012;2023-03-07T06:55:06;95656.00;;;3.20
8227;BMP180;4154;48.810;9.012;2023-03-07T06:57:32;95651.00;;;3.10
8227;BMP180;4154;48.810;9.012;2023-03-07T06:59:59;95656.00;;;3.10
8227;BMP180;4154;48.810;9.012;2023-03-07T07:02:25;95654.00;;;3.20
8227;BMP180;4154;48.810;9.012;2023-03-07T07:04:51;95651.00;;;3.10
8227;BMP180;4154;48.810;9.012;2023-03-07T07:07:16;95646.00;;;3.10
8227;BMP180;4154;48.810;9.012;2023-03-07T07:09:42;95647.00;;;3.10
8227;BMP180;4154;48.810;9.012;2023-03-07T07:12:08;95650.00;;;3.20
8227;BMP180;4154;48.810;9.012;2023-03-07T07:14:33;95647.00;;;3.20
8227;BMP180;4154;48.810;9.012;2023-03-07T07:17:00;95645.00;;;3.20
8227;BMP180;4154;48.810;9.012;2023-03-07T07:19:26;95641.00;;;3.30
8227;BMP180;4154;48.810;9.012;2023-03-07T07:21:52;95638.00;;;3.30
8227;BMP180;4154;48.810;9.012;2023-03-07T07:24:18;95641.00;;;3.40
8227;BMP180;4154;48.810;9.012;2023-03-07T07:26:44;95638.00;;;3.40
8227;BMP180;4154;48.810;9.012;2023-03-07T07:29:10;95636.00;;;3.40
8227;BMP180;4154;48.810;9.012;2023-03-07T07:31:36;95632.00;;;3.50
8227;BMP180;4154;48.810;9.012;2023-03-07T07:34:02;95639.00;;;3.60
8227;BMP180;4154;48.810;9.012;2023-03-07T07:36:28;95640.00;;;3.60
8227;BMP180;4154;48.810;9.012;2023-03-07T07:38:54;95642.00;;;3.60
8227;BMP180;4154;48.810;9.012;2023-03-07T07:41:20;95643.00;;;3.60
8227;BMP180;4154;48.810;9.012;2023-03-07T07:43:46;95639.00;;;3.70
8227;BMP180;4154;48.810;9.012;2023-03-07T07:46:14;95648.00;;;3.70
8227;BMP180;4154;48.810;9.012;2023-03-07T07:48:40;95637.00;;;3.80
8227;BMP180;4154;48.810;9.012;2023-03-07T07:51:06;95644.00;;;3.70
8227;BMP180;4154;48.810;9.012;2023-03-07T07:53:32;95637.00;;;3.80
8227;BMP180;4154;48.810;9.012;2023-03-07T07:55:57;95633.00;;;3.90
8227;BMP180;4154;48.810;9.012;2023-03-07T07:58:24;95638.00;;;3.90
8227;BMP180;4154;48.810;9.012;2023-03-07T08:00:50;95643.00;;;3.90
8227;BMP180;4154;48.810;9.012;2023-03-07T08:03:15;95644.00;;;3.90
8227;BMP180;4154;48.810;9.012;2023-03-07T08:05:46;95633.00;;;4.00
8227;BMP180;4154;48.810;9.012;2023-03-07T08:08:14;95641.00;;;4.10
8227;BMP180;4154;48.810;9.012;2023-03-07T08:10:41;95629.00;;;4.00
8227;BMP180;4154;48.810;9.012;2023-03-07T08:13:12;95640.00;;;4.20
8227;BMP180;4154;48.810;9.012;2023-03-07T08:15:38;95635.00;;;4.30
8227;BMP180;4154;48.810;9.012;2023-03-07T08:18:04;95633.00;;;4.40
8227;BMP180;4154;48.810;9.012;2023-03-07T08:20:30;95629.00;;;4.40
8227;BMP180;4154;48.810;9.012;2023-03-07T08:22:55;95623.00;;;4.40
8227;BMP180;4154;48.810;9.012;2023-03-07T08:25:23;95624.00;;;4.50
8227;BMP180;4154;48.810;9.012;2023-03-07T08:27:53;95630.00;;;4.60
8227;BMP180;4154;48.810;9.012;2023-03-07T08:30:31;95624.00;;;4.60
8227;BMP180;4154;48.810;9.012;2023-03-07T08:32:58;95620.00;;;4.60
8227;BMP180;4154;48.810;9.012;2023-03-07T08:35:26;95624.00;;;4.80
8227;BMP180;4154;48.810;9.012;2023-03-07T08:37:57;95617.00;;;4.90
8227;BMP180;4154;48.810;9.012;2023-03-07T08:40:25;95617.00;;;4.90
8227;BMP180;4154;48.810;9.012;2023-03-07T08:42:51;95622.00;;;4.90
8227;BMP180;4154;48.810;9.012;2023-03-07T08:45:21;95612.00;;;4.90
8227;BMP180;4154;48.810;9.012;2023-03-07T08:47:46;95609.00;;;5.00
8227;BMP180;4154;48.810;9.012;2023-03-07T08:50:12;95617.00;;;5.10
8227;BMP180;4154;48.810;9.012;2023-03-07T08:52:37;95613.00;;;5.00
8227;BMP180;4154;48.810;9.012;2023-03-07T08:55:03;95608.00;;;5.00
8227;BMP180;4154;48.810;9.012;2023-03-07T08:57:29;95607.00;;;5.00
8227;BMP180;4154;48.810;9.012;2023-03-07T08:59:55;95605.00;;;4.90
8227;BMP180;4154;48.810;9.012;2023-03-07T09:02:21;95606.00;;;4.80
8227;BMP180;4154;48.810;9.012;2023-03-07T09:04:46;95609.00;;;4.80
8227;BMP180;4154;48.810;9.012;2023-03-07T09:07:12;95610.00;;;4.90
8227;BMP180;4154;48.810;9.012;2023-03-07T09:09:38;95605.00;;;4.90
8227;BMP180;4154;48.810;9.012;2023-03-07T09:12:03;95609.00;;;4.80
8227;BMP180;4154;48.810;9.012;2023-03-07T09:14:29;95598.00;;;4.60
8227;BMP180;4154;48.810;9.012;2023-03-07T09:16:55;95599.00;;;4.70
8227;BMP180;4154;48.810;9.012;2023-03-07T09:19:20;95598.00;;;4.60
8227;BMP180;4154;48.810;9.012;2023-03-07T09:21:48;95596.00;;;4.70
8227;BMP180;4154;48.810;9.012;2023-03-07T09:24:13;95596.00;;;4.80
8227;BMP180;4154;48.810;9.012;2023-03-07T09:26:39;95588.00;;;4.80
8227;BMP180;4154;48.810;9.012;2023-03-07T09:29:05;95594.00;;;4.80
8227;BMP180;4154;48.810;9.012;2023-03-07T09:31:30;95592.00;;;4.90
8227;BMP180;4154;48.810;9.012;2023-03-07T09:33:56;95588.00;;;5.00
8227;BMP180;4154;48.810;9.012;2023-03-07T09:36:21;95596.00;;;5.00
8227;BMP180;4154;48.810;9.012;2023-03-07T09:38:47;95592.00;;;5.00
8227;BMP180;4154;48.810;9.012;2023-03-07T09:41:39;95592.00;;;5.00
8227;BMP180;4154;48.810;9.012;2023-03-07T09:44:47;95593.00;;;5.00
8227;BMP180;4154;48.810;9.012;2023-03-07T09:50:57;95600.00;;;5.20
8227;BMP180;4154;48.810;9.012;2023-03-07T09:53:41;95587.00;;;5.20
8227;BMP180;4154;48.810;9.012;2023-03-07T09:56:14;95584.00;;;5.30
8227;BMP180;4154;48.810;9.012;2023-03-07T09:58:49;95583.00;;;5.20
8227;BMP180;4154;48.810;9.012;2023-03-07T10:01:22;95577.00;;;4.90
8227;BMP180;4154;48.810;9.012;2023-03-07T10:04:04;95578.00;;;4.90
8227;BMP180;4154;48.810;9.012;2023-03-07T10:06:50;95582.00;;;5.00
8227;BMP180;4154;48.810;9.012;2023-03-07T10:09:20;95574.00;;;5.00
8227;BMP180;4154;48.810;9.012;2023-03-07T10:20:51;95560.00;;;4.90
8227;BMP180;4154;48.810;9.012;2023-03-07T10:24:09;95572.00;;;4.70
8227;BMP180;4154;48.810;9.012;2023-03-07T10:27:05;95573.00;;;4.70
8227;BMP180;4154;48.810;9.012;2023-03-07T10:29:50;95572.00;;;4.80
8227;BMP180;4154;48.810;9.012;2023-03-07T10:32:52;95553.00;;;4.80
8227;BMP180;4154;48.810;9.012;2023-03-07T10:35:22;95564.00;;;4.90
8227;BMP180;4154;48.810;9.012;2023-03-07T10:38:05;95564.00;;;4.80
8227;BMP180;4154;48.810;9.012;2023-03-07T10:40:53;95563.00;;;4.90
8227;BMP180;4154;48.810;9.012;2023-03-07T10:43:29;95557.00;;;4.90
8227;BMP180;4154;48.810;9.012;2023-03-07T10:46:21;95552.00;;;4.80
8227;BMP180;4154;48.810;9.012;2023-03-07T10:48:52;95568.00;;;4.90
8227;BMP180;4154;48.810;9.012;2023-03-07T10:54:36;95550.00;;;4.80
8227;BMP180;4154;48.810;9.012;2023-03-07T10:57:13;95554.00;;;4.70
8227;BMP180;4154;48.810;9.012;2023-03-07T10:59:43;95541.00;;;4.70
8227;BMP180;4154;48.810;9.012;2023-03-07T11:02:36;95549.00;;;4.70
8227;BMP180;4154;48.810;9.012;2023-03-07T11:05:46;95542.00;;;4.50
8227;BMP180;4154;48.810;9.012;2023-03-07T11:08:34;95546.00;;;4.60
8227;BMP180;4154;48.810;9.012;2023-03-07T11:11:03;95548.00;;;4.60
8227;BMP180;4154;48.810;9.012;2023-03-07T11:13:30;95549.00;;;4.50
8227;BMP180;4154;48.810;9.012;2023-03-07T11:16:19;95549.00;;;4.60
8227;BMP180;4154;48.810;9.012;2023-03-07T11:18:46;95530.00;;;4.50
8227;BMP180;4154;48.810;9.012;2023-03-07T11:21:51;95536.00;;;4.60
8227;BMP180;4154;48.810;9.012;2023-03-07T11:24:30;95544.00;;;4.50
8227;BMP180;4154;48.810;9.012;2023-03-07T11:26:58;95533.00;;;4.40
8227;BMP180;4154;48.810;9.012;2023-03-07T11:29:25;95535.00;;;4.50
8227;BMP180;4154;48.810;9.012;2023-03-07T11:34:56;95527.00;;;4.50
8227;BMP180;4154;48.810;9.012;2023-03-07T11:37:39;95528.00;;;4.40
8227;BMP180;4154;48.810;9.012;2023-03-07T11:43:20;95527.00;;;4.40
8227;BMP180;4154;48.810;9.012;2023-03-07T11:46:07;95540.00;;;4.40
8227;BMP180;4154;48.810;9.012;2023-03-07T11:49:26;95529.00;;;4.40
8227;BMP180;4154;48.810;9.012;2023-03-07T11:58:22;95518.00;;;4.50
8227;BMP180;4154;48.810;9.012;2023-03-07T12:03:49;95519.00;;;4.50
8227;BMP180;4154;48.810;9.012;2023-03-07T12:06:43;95517.00;;;4.70
8227;BMP180;4154;48.810;9.012;2023-03-07T12:15:39;95497.00;;;4.80
8227;BMP180;4154;48.810;9.012;2023-03-07T12:19:04;95494.00;;;4.90
8227;BMP180;4154;48.810;9.012;2023-03-07T12:21:30;95488.00;;;5.10
8227;BMP180;4154;48.810;9.012;2023-03-07T12:24:25;95472.00;;;5.20
8227;BMP180;4154;48.810;9.012;2023-03-07T12:27:01;95478.00;;;5.30
8227;BMP180;4154;48.810;9.012;2023-03-07T12:29:43;95465.00;;;5.40
8227;BMP180;4154;48.810;9.012;2023-03-07T12:32:25;95458.00;;;5.60
8227;BMP180;4154;48.810;9.012;2023-03-07T12:35:00;95453.00;;;5.70
8227;BMP180;4154;48.810;9.012;2023-03-07T12:37:40;95445.00;;;5.70
8227;BMP180;4154;48.810;9.012;2023-03-07T12:40:39;95437.00;;;5.90
8227;BMP180;4154;48.810;9.012;2023-03-07T12:43:35;95440.00;;;6.00
8227;BMP180;4154;48.810;9.012;2023-03-07T12:46:34;95428.00;;;6.10
8227;BMP180;4154;48.810;9.012;2023-03-07T12:49:41;95423.00;;;6.20
8227;BMP180;4154;48.810;9.012;2023-03-07T12:52:21;95425.00;;;6.10
8227;BMP180;4154;48.810;9.012;2023-03-07T12:55:05;95415.00;;;6.30
8227;BMP180;4154;48.810;9.012;2023-03-07T12:57:39;95410.00;;;6.10
8227;BMP180;4154;48.810;9.012;2023-03-07T13:00:11;95412.00;;;5.80
8227;BMP180;4154;48.810;9.012;2023-03-07T13:02:56;95396.00;;;5.80
8227;BMP180;4154;48.810;9.012;2023-03-07T13:05:24;95400.00;;;5.80
8227;BMP180;4154;48.810;9.012;2023-03-07T13:07:50;95401.00;;;5.90
8227;BMP180;4154;48.810;9.012;2023-03-07T13:10:22;95399.00;;;6.00
8227;BMP180;4154;48.810;9.012;2023-03-07T13:12:50;95388.00;;;6.00
8227;BMP180;4154;48.810;9.012;2023-03-07T13:22:54;95393.00;;;6.10
8227;BMP180;4154;48.810;9.012;2023-03-07T13:25:46;95393.00;;;6.10
8227;BMP180;4154;48.810;9.012;2023-03-07T13:28:38;95396.00;;;6.10
8227;BMP180;4154;48.810;9.012;2023-03-07T13:33:41;95395.00;;;5.90
8227;BMP180;4154;48.810;9.012;2023-03-07T13:38:57;95405.00;;;5.80
8227;BMP180;4154;48.810;9.012;2023-03-07T13:41:49;95412.00;;;5.80
8227;BMP180;4154;48.810;9.012;2023-03-07T13:44:38;95405.00;;;5.70
8227;BMP180;4154;48.810;9.012;2023-03-07T13:47:42;95397.00;;;5.70
8227;BMP180;4154;48.810;9.012;2023-03-07T13:53:01;95406.00;;;6.00
8227;BMP180;4154;48.810;9.012;2023-03-07T13:55:38;95408.00;;;6.00
8227;BMP180;4154;48.810;9.012;2023-03-07T13:58:36;95413.00;;;6.00
8227;BMP180;4154;48.810;9.012;2023-03-07T14:01:17;95416.00;;;6.10
8227;BMP180;4154;48.810;9.012;2023-03-07T14:04:33;95413.00;;;5.90
8227;BMP180;4154;48.810;9.012;2023-03-07T14:07:10;95413.00;;;5.90
8227;BMP180;4154;48.810;9.012;2023-03-07T14:09:43;95421.00;;;5.90
8227;BMP180;4154;48.810;9.012;2023-03-07T14:12:36;95419.00;;;5.80
8227;BMP180;4154;48.810;9.012;2023-03-07T14:18:44;95419.00;;;5.80
8227;BMP180;4154;48.810;9.012;2023-03-07T14:26:57;95436.00;;;5.40
8227;BMP180;4154;48.810;9.012;2023-03-07T14:29:27;95424.00;;;5.50
8227;BMP180;4154;48.810;9.012;2023-03-07T14:31:57;95428.00;;;5.60
8227;BMP180;4154;48.810;9.012;2023-03-07T14:34:34;95445.00;;;5.80
8227;BMP180;4154;48.810;9.012;2023-03-07T14:37:14;95432.00;;;5.90
8227;BMP180;4154;48.810;9.012;2023-03-07T14:40:11;95431.00;;;6.00
8227;BMP180;4154;48.810;9.012;2023-03-07T14:42:59;95436.00;;;6.20
8227;BMP180;4154;48.810;9.012;2023-03-07T14:45:57;95430.00;;;6.50
8227;BMP180;4154;48.810;9.012;2023-03-07T14:49:13;95447.00;;;6.80
8227;BMP180;4154;48.810;9.012;2023-03-07T14:51:44;95435.00;;;7.00
8227;BMP180;4154;48.810;9.012;2023-03-07T14:54:17;95433.00;;;7.10
8227;BMP180;4154;48.810;9.012;2023-03-07T14:56:45;95430.00;;;6.90
8227;BMP180;4154;48.810;9.012;2023-03-07T14:59:13;95425.00;;;6.90
8227;BMP180;4154;48.810;9.012;2023-03-07T15:01:40;95419.00;;;7.00
8227;BMP180;4154;48.810;9.012;2023-03-07T15:04:25;95421.00;;;7.00
8227;BMP180;4154;48.810;9.012;2023-03-07T15:07:02;95406.00;;;7.10
8227;BMP180;4154;48.810;9.012;2023-03-07T15:09:30;95414.00;;;6.90
8227;BMP180;4154;48.810;9.012;2023-03-07T15:12:19;95416.00;;;6.70
8227;BMP180;4154;48.810;9.012;2023-03-07T15:14:52;95411.00;;;6.50
8227;BMP180;4154;48.810;9.012;2023-03-07T15:17:37;95429.00;;;6.40
8227;BMP180;4154;48.810;9.012;2023-03-07T15:20:20;95424.00;;;6.20
8227;BMP180;4154;48.810;9.012;2023-03-07T15:22:46;95427.00;;;6.20
8227;BMP180;4154;48.810;9.012;2023-03-07T15:25:19;95429.00;;;6.30
8227;BMP180;4154;48.810;9.012;2023-03-07T15:27:46;95418.00;;;6.30
8227;BMP180;4154;48.810;9.012;2023-03-07T15:30:32;95425.00;;;6.30
8227;BMP180;4154;48.810;9.012;2023-03-07T15:33:20;95428.00;;;6.40
8227;BMP180;4154;48.810;9.012;2023-03-07T15:36:24;95435.00;;;6.40
8227;BMP180;4154;48.810;9.012;2023-03-07T15:39:11;95443.00;;;6.40
8227;BMP180;4154;48.810;9.012;2023-03-07T15:41:38;95438.00;;;6.30
8227;BMP180;4154;48.810;9.012;2023-03-07T15:46:48;95440.00;;;6.30
8227;BMP180;4154;48.810;9.012;2023-03-07T15:49:47;95431.00;;;6.40
8227;BMP180;4154;48.810;9.012;2023-03-07T15:52:49;95431.00;;;6.50
8227;BMP180;4154;48.810;9.012;2023-03-07T15:55:19;95438.00;;;6.60
8227;BMP180;4154;48.810;9.012;2023-03-07T15:57:56;95430.00;;;6.60
8227;BMP180;4154;48.810;9.012;2023-03-07T16:00:34;95435.00;;;6.60
8227;BMP180;4154;48.810;9.012;2023-03-07T16:05:45;95433.00;;;6.30
8227;BMP180;4154;48.810;9.012;2023-03-07T16:08:14;95439.00;;;6.30
8227;BMP180;4154;48.810;9.012;2023-03-07T16:10:48;95437.00;;;6.40
8227;BMP180;4154;48.810;9.012;2023-03-07T16:13:18;95442.00;;;6.40
8227;BMP180;4154;48.810;9.012;2023-03-07T16:15:44;95441.00;;;6.30
8227;BMP180;4154;48.810;9.012;2023-03-07T16:18:22;95443.00;;;6.20
8227;BMP180;4154;48.810;9.012;2023-03-07T16:20:51;95452.00;;;6.10
8227;BMP180;4154;48.810;9.012;2023-03-07T16:23:16;95460.00;;;6.10
8227;BMP180;4154;48.810;9.012;2023-03-07T16:25:43;95450.00;;;6.10
8227;BMP180;4154;48.810;9.012;2023-03-07T16:28:10;95445.00;;;6.00
8227;BMP180;4154;48.810;9.012;2023-03-07T16:30:37;95435.00;;;5.90
8227;BMP180;4154;48.810;9.012;2023-03-07T16:33:03;95463.00;;;5.80
8227;BMP180;4154;48.810;9.012;2023-03-07T16:35:29;95453.00;;;5.80